Time;durP1;ratioP1;P1;durP2;ratioP2;P2;SDS_P1;SDS_P2;PMS_P1;PMS_P2;Temp;Humidity;BMP_temperature;BMP_pressure;BME280_temperature;BME280_humidity;BME280_pressure;Samples;Min_cycle;Max_cycle;Signal;HPM_P1;HPM_P2
2022/04/01 00:00:23;;;;;;;6.32;2.90;;;10.00;99.90;;;;;;5005973;28;20519;-72
2022/04/01 00:02:49;;;;;;;5.57;2.70;;;9.90;99.90;;;;;;5004451;28;20037;-71
2022/04/01 00:05:15;;;;;;;8.75;2.95;;;9.90;99.90;;;;;;5021886;28;20396;-70
2022/04/01 00:07:42;;;;;;;4.47;3.00;;;9.90;99.90;;;;;;5016537;28;20045;-70
2022/04/01 00:10:10;;;;;;;5.95;3.03;;;9.80;99.90;;;;;;4997318;28;20048;-70
2022/04/01 00:12:43;;;;;;;5.32;2.70;;;9.80;99.90;;;;;;4999768;28;20099;-69
2022/04/01 00:15:12;;;;;;;5.45;3.05;;;9.80;99.90;;;;;;5021233;28;20046;-70
2022/04/01 00:17:39;;;;;;;6.05;2.95;;;9.80;99.90;;;;;;5017721;28;20331;-70
2022/04/01 00:20:05;;;;;;;7.35;2.97;;;9.80;99.90;;;;;;5000012;28;20034;-70
2022/04/01 00:22:31;;;;;;;6.22;3.05;;;9.80;99.90;;;;;;5018802;28;20037;-70
2022/04/01 00:24:58;;;;;;;7.30;3.20;;;9.70;99.90;;;;;;5019292;28;20048;-71
2022/04/01 00:27:24;;;;;;;6.18;2.92;;;9.70;99.90;;;;;;5034039;28;20094;-70
2022/04/01 00:29:50;;;;;;;4.97;3.03;;;9.60;99.90;;;;;;5002134;28;20045;-70
2022/04/01 00:32:16;;;;;;;5.40;2.80;;;9.70;99.90;;;;;;5020319;28;20030;-71
2022/04/01 00:34:42;;;;;;;10.77;3.35;;;9.70;99.90;;;;;;5016613;28;20080;-70
2022/04/01 00:37:08;;;;;;;7.00;3.00;;;9.70;99.90;;;;;;5018915;28;20034;-70
2022/04/01 00:39:34;;;;;;;7.63;2.92;;;9.70;99.90;;;;;;5002117;28;20152;-71
2022/04/01 00:42:01;;;;;;;6.32;3.03;;;9.70;99.90;;;;;;5021685;28;20095;-70
2022/04/01 00:44:33;;;;;;;5.15;2.83;;;9.70;99.90;;;;;;5018900;28;20116;-71
2022/04/01 00:47:10;;;;;;;6.72;3.50;;;9.70;99.90;;;;;;5031774;28;20032;-70
2022/04/01 00:49:39;;;;;;;7.43;3.22;;;9.70;99.90;;;;;;5006326;28;20039;-70
2022/04/01 00:52:08;;;;;;;6.38;4.35;;;9.60;99.90;;;;;;5015111;28;20030;-70
2022/04/01 00:54:35;;;;;;;9.77;5.07;;;9.70;99.90;;;;;;5032914;28;20088;-71
2022/04/01 00:57:06;;;;;;;10.48;5.22;;;9.80;99.90;;;;;;5022692;28;20044;-71
2022/04/01 00:59:33;;;;;;;10.80;5.97;;;9.70;99.90;;;;;;5004920;28;20044;-69
2022/04/01 01:02:00;;;;;;;8.93;5.60;;;9.70;99.90;;;;;;5020048;28;20041;-69
2022/04/01 01:04:27;;;;;;;8.15;5.43;;;9.80;99.90;;;;;;5018914;28;20080;-70
2022/04/01 01:06:56;;;;;;;6.95;4.68;;;9.90;99.90;;;;;;5014776;28;20582;-70
2022/04/01 01:09:23;;;;;;;7.65;4.97;;;9.80;99.90;;;;;;5018961;28;20038;-70
2022/04/01 01:11:51;;;;;;;9.23;4.85;;;9.70;99.90;;;;;;5016326;28;20030;-70
2022/04/01 01:14:26;;;;;;;7.72;4.45;;;9.70;99.90;;;;;;5005794;28;20034;-71
2022/04/01 01:16:52;;;;;;;7.13;4.47;;;9.70;99.90;;;;;;5018251;28;20026;-70
2022/04/01 01:19:18;;;;;;;6.85;4.53;;;9.70;99.90;;;;;;4989097;28;20034;-71
2022/04/01 01:21:48;;;;;;;8.30;4.55;;;9.70;99.90;;;;;;4977669;28;20034;-71
2022/04/01 01:24:16;;;;;;;8.48;4.72;;;9.70;99.90;;;;;;5011020;28;20516;-70
2022/04/01 01:26:52;;;;;;;11.55;4.75;;;9.60;99.90;;;;;;4995316;28;20042;-71
2022/04/01 01:29:25;;;;;;;7.57;4.65;;;9.50;99.90;;;;;;4997245;28;20145;-71
2022/04/01 01:31:52;;;;;;;;;;;9.60;99.90;;;;;;4985974;28;20037;-71
2022/04/01 01:34:18;;;;;;;7.75;4.55;;;9.50;99.90;;;;;;5032650;28;19939;-71
2022/04/01 01:36:45;;;;;;;6.63;4.25;;;9.40;99.90;;;;;;5018350;28;20041;-70
2022/04/01 01:39:11;;;;;;;6.97;4.20;;;9.40;99.90;;;;;;5019223;28;20033;-71
2022/04/01 01:41:37;;;;;;;7.53;4.10;;;9.40;99.90;;;;;;5023606;28;20133;-70
2022/04/01 01:44:05;;;;;;;6.57;4.60;;;9.40;99.90;;;;;;5037181;28;20030;-70
2022/04/01 01:46:31;;;;;;;9.25;4.45;;;9.30;99.90;;;;;;5034339;28;20096;-70
2022/04/01 01:48:58;;;;;;;8.43;3.83;;;9.30;99.90;;;;;;5023632;28;20045;-71
2022/04/01 01:56:55;;;;;;;6.90;3.45;;;9.30;99.90;;;;;;5021572;28;20101;-72
2022/04/01 01:59:21;;;;;;;6.88;3.15;;;9.30;99.90;;;;;;5024219;28;20075;-69
2022/04/01 02:01:47;;;;;;;7.00;3.30;;;9.30;99.90;;;;;;5007961;28;20099;-70
2022/04/01 02:04:13;;;;;;;8.25;4.07;;;9.20;99.90;;;;;;5038765;28;20122;-69
2022/04/01 02:06:39;;;;;;;5.28;3.10;;;9.30;99.90;;;;;;5009701;28;20103;-70
2022/04/01 02:09:05;;;;;;;6.63;3.00;;;9.20;99.90;;;;;;5019766;28;20469;-71
2022/04/01 02:11:33;;;;;;;6.78;3.20;;;9.30;99.90;;;;;;5024700;28;20137;-70
2022/04/01 02:13:59;;;;;;;6.47;3.40;;;9.20;99.90;;;;;;5039643;28;20045;-70
2022/04/01 02:16:25;;;;;;;7.40;3.80;;;9.20;99.90;;;;;;5021842;28;20100;-71
2022/04/01 02:18:52;;;;;;;4.80;3.05;;;9.10;99.90;;;;;;5025719;28;20124;-70
2022/04/01 02:21:18;;;;;;;6.57;3.72;;;9.00;99.90;;;;;;5002980;28;20055;-71
2022/04/01 02:23:46;;;;;;;10.57;3.53;;;9.00;99.90;;;;;;5013666;28;20354;-70
2022/04/01 02:26:13;;;;;;;11.60;3.38;;;9.10;99.90;;;;;;5009183;28;20583;-69
2022/04/01 02:28:42;;;;;;;6.65;3.78;;;9.10;99.90;;;;;;5026456;28;20113;-70
2022/04/01 02:31:09;;;;;;;8.90;3.38;;;9.00;99.90;;;;;;5034598;28;20095;-70
2022/04/01 02:33:35;;;;;;;7.03;3.90;;;9.00;99.90;;;;;;5026087;28;20049;-70
2022/04/01 02:36:02;;;;;;;7.00;3.78;;;9.00;99.90;;;;;;5040265;28;20129;-70
2022/04/01 02:38:30;;;;;;;7.85;4.05;;;9.00;99.90;;;;;;5034736;28;20593;-70
2022/04/01 02:40:57;;;;;;;6.18;3.85;;;8.90;99.90;;;;;;5024461;28;20129;-70
2022/04/01 02:43:25;;;;;;;7.13;3.70;;;8.90;99.90;;;;;;5022101;28;20038;-70
2022/04/01 02:45:51;;;;;;;9.02;4.15;;;8.90;99.90;;;;;;5002529;28;20034;-70
2022/04/01 02:48:18;;;;;;;10.00;4.53;;;8.80;99.90;;;;;;5005853;28;20479;-70
2022/04/01 02:50:46;;;;;;;6.90;3.85;;;8.80;99.90;;;;;;5024510;28;20089;-71
2022/04/01 02:53:14;;;;;;;8.02;4.03;;;8.70;99.90;;;;;;5025981;28;20508;-70
2022/04/01 02:55:41;;;;;;;7.45;4.25;;;8.60;99.90;;;;;;5023724;28;20032;-71
2022/04/01 02:58:07;;;;;;;6.97;3.90;;;8.70;99.90;;;;;;5005185;28;20038;-70
2022/04/01 03:00:35;;;;;;;7.13;4.03;;;8.80;99.90;;;;;;5017865;28;20049;-70
2022/04/01 03:03:06;;;;;;;5.82;3.80;;;8.60;99.90;;;;;;5007028;28;20682;-71
2022/04/01 03:05:37;;;;;;;6.40;4.03;;;8.60;99.90;;;;;;5019871;28;20061;-70
2022/04/01 03:08:05;;;;;;;6.30;4.00;;;8.50;99.90;;;;;;5021070;28;20120;-70
2022/04/01 03:10:43;;;;;;;9.98;4.40;;;8.50;99.90;;;;;;4999320;28;20064;-71
2022/04/01 03:13:10;;;;;;;8.07;4.25;;;8.50;99.90;;;;;;5030027;28;20048;-70
2022/04/01 03:15:39;;;;;;;8.75;4.43;;;8.50;99.90;;;;;;5019650;28;20067;-70
2022/04/01 03:18:06;;;;;;;7.65;4.40;;;8.50;99.90;;;;;;5020228;28;20045;-70
2022/04/01 03:20:35;;;;;;;8.45;4.38;;;8.40;99.90;;;;;;5005221;28;20041;-70
2022/04/01 03:23:02;;;;;;;7.90;4.50;;;8.50;99.90;;;;;;5006750;28;20045;-71
2022/04/01 03:25:32;;;;;;;6.85;4.32;;;8.60;99.90;;;;;;5027444;28;20037;-70
2022/04/01 03:28:01;;;;;;;6.75;4.20;;;8.50;99.90;;;;;;5023925;28;20037;-70
2022/04/01 03:30:27;;;;;;;6.93;4.07;;;8.50;99.90;;;;;;5033285;28;20037;-70
2022/04/01 03:32:55;;;;;;;9.07;4.07;;;8.50;99.90;;;;;;5018975;28;20033;-69
2022/04/01 03:35:21;;;;;;;7.45;4.18;;;8.50;99.90;;;;;;5015714;28;20052;-69
2022/04/01 03:37:49;;;;;;;9.88;4.50;;;8.60;99.90;;;;;;5035138;28;20901;-70
2022/04/01 03:40:16;;;;;;;8.25;4.57;;;8.60;99.90;;;;;;5020559;28;20034;-70
2022/04/01 03:42:44;;;;;;;7.35;4.35;;;8.70;99.90;;;;;;5034452;28;20030;-70
2022/04/01 03:45:11;;;;;;;9.15;4.70;;;8.70;99.90;;;;;;5036075;28;20220;-70
2022/04/01 03:48:00;;;;;;;9.20;4.82;;;8.70;99.90;;;;;;5015731;28;20465;-70
2022/04/01 03:50:34;;;;;;;7.63;4.22;;;8.70;99.90;;;;;;5033759;28;20072;-70
2022/04/01 03:53:06;;;;;;;9.50;4.45;;;8.70;99.90;;;;;;5020961;28;20054;-70
2022/04/01 03:55:35;;;;;;;8.00;4.53;;;8.70;99.90;;;;;;5019171;28;20037;-70
2022/04/01 03:58:06;;;;;;;11.00;4.50;;;8.60;99.90;;;;;;5038819;28;20113;-70
2022/04/01 04:00:32;;;;;;;9.23;4.45;;;8.70;99.90;;;;;;5015244;28;20037;-70
2022/04/01 04:02:59;;;;;;;6.60;3.85;;;8.70;99.90;;;;;;4988143;28;20046;-70
2022/04/01 04:05:30;;;;;;;7.25;3.47;;;8.80;99.90;;;;;;4997510;28;20497;-71
2022/04/01 04:07:58;;;;;;;6.03;3.78;;;8.90;99.90;;;;;;5017096;28;20038;-69
2022/04/01 04:10:27;;;;;;;9.70;3.67;;;8.90;99.90;;;;;;4998949;28;20034;-69
2022/04/01 04:12:57;;;;;;;7.18;3.88;;;8.90;99.90;;;;;;5014188;28;20033;-70
2022/04/01 04:15:28;;;;;;;8.23;3.90;;;8.90;99.90;;;;;;5015991;28;20129;-70
2022/04/01 04:18:01;;;;;;;6.30;3.90;;;8.80;99.90;;;;;;5013075;28;20037;-71
2022/04/01 04:20:55;;;;;;;6.03;3.92;;;8.80;99.90;;;;;;4995958;28;20038;-70
2022/04/01 04:23:24;;;;;;;7.53;3.70;;;8.70;99.90;;;;;;5020163;28;20053;-70
2022/04/01 04:26:00;;;;;;;7.32;4.10;;;8.70;99.90;;;;;;5035556;28;20045;-71
2022/04/01 04:28:31;;;;;;;6.20;3.47;;;8.60;99.90;;;;;;5016679;28;20033;-70
2022/04/01 04:31:05;;;;;;;7.57;3.67;;;8.50;99.90;;;;;;5019881;28;20038;-70
2022/04/01 04:33:33;;;;;;;5.47;3.67;;;8.50;99.90;;;;;;5020448;28;20041;-71
2022/04/01 04:36:04;;;;;;;7.43;3.53;;;8.50;99.90;;;;;;5024780;28;20044;-71
2022/04/01 04:38:42;;;;;;;9.23;3.33;;;8.40;99.90;;;;;;5036839;28;20041;-70
2022/04/01 04:41:09;;;;;;;7.45;3.50;;;8.40;99.90;;;;;;5018473;28;20144;-70
2022/04/01 04:43:38;;;;;;;7.78;2.70;;;8.30;99.90;;;;;;5022028;28;20037;-71
2022/04/01 04:46:08;;;;;;;6.53;2.97;;;8.30;99.90;;;;;;5031764;28;20188;-71
2022/04/01 04:48:36;;;;;;;7.97;3.42;;;8.30;99.90;;;;;;5018180;28;20128;-72
2022/04/01 04:51:03;;;;;;;4.57;2.58;;;8.30;99.90;;;;;;5020860;28;20037;-70
2022/04/01 04:53:31;;;;;;;6.95;2.45;;;8.20;99.90;;;;;;5017491;28;20030;-71
2022/04/01 04:56:07;;;;;;;6.32;1.80;;;8.20;99.90;;;;;;5033314;28;20044;-71
2022/04/01 04:58:43;;;;;;;4.90;2.10;;;8.20;99.90;;;;;;5032007;28;20037;-71
2022/04/01 05:01:35;;;;;;;6.18;2.65;;;8.20;99.90;;;;;;5032710;28;20037;-69
2022/04/01 05:04:11;;;;;;;4.75;1.80;;;8.10;99.90;;;;;;5036359;28;20022;-71
2022/04/01 05:07:04;;;;;;;4.53;1.75;;;8.10;99.90;;;;;;5030830;28;20053;-72
2022/04/01 05:09:34;;;;;;;3.17;1.60;;;7.90;99.90;;;;;;4995272;28;20068;-70
2022/04/01 05:12:16;;;;;;;2.65;1.30;;;7.90;99.90;;;;;;5018036;28;20111;-70
2022/04/01 05:15:04;;;;;;;3.03;1.10;;;8.00;99.90;;;;;;5036472;28;20046;-70
2022/04/01 05:17:43;;;;;;;3.50;1.00;;;7.80;99.90;;;;;;5020323;28;20041;-70
2022/04/01 05:20:16;;;;;;;1.95;0.90;;;7.80;99.90;;;;;;5016761;28;20132;-70
2022/04/01 05:22:47;;;;;;;3.63;1.00;;;7.70;99.90;;;;;;5004318;28;20051;-70
2022/04/01 05:25:20;;;;;;;2.25;1.00;;;7.70;99.90;;;;;;5035621;28;20041;-71
2022/04/01 05:27:47;;;;;;;;;;;7.70;99.90;;;;;;5014983;28;20038;-70
2022/04/01 05:30:18;;;;;;;1.17;0.70;;;7.60;99.90;;;;;;5036802;28;19963;-71
2022/04/01 05:33:08;;;;;;;3.03;0.80;;;7.60;99.90;;;;;;5018860;28;20034;-71
2022/04/01 05:35:41;;;;;;;3.40;0.90;;;7.50;99.90;;;;;;5001791;28;20026;-72
2022/04/01 05:38:08;;;;;;;3.08;0.90;;;7.40;99.90;;;;;;5031321;28;20034;-72
2022/04/01 05:40:36;;;;;;;1.42;0.90;;;7.40;99.90;;;;;;5018540;28;20533;-72
2022/04/01 05:43:04;;;;;;;1.55;0.95;;;7.50;99.90;;;;;;5033250;28;20039;-71
2022/04/01 05:45:30;;;;;;;5.60;1.00;;;7.50;99.90;;;;;;5017417;28;20041;-72
2022/04/01 05:47:58;;;;;;;2.38;0.90;;;7.50;99.90;;;;;;5017827;28;20112;-71
2022/04/01 05:50:25;;;;;;;2.50;1.33;;;7.50;99.90;;;;;;4999181;28;20029;-72
2022/04/01 05:52:53;;;;;;;3.42;1.00;;;7.60;99.90;;;;;;5001703;28;20042;-71
2022/04/01 05:55:26;;;;;;;2.03;0.82;;;7.50;99.90;;;;;;5018624;28;20077;-71
2022/04/01 05:57:55;;;;;;;4.82;0.82;;;7.50;99.90;;;;;;5033041;28;20072;-72
2022/04/01 06:00:22;;;;;;;4.70;1.10;;;7.50;99.90;;;;;;5029273;28;20053;-72
2022/04/01 06:02:59;;;;;;;3.03;1.02;;;7.50;99.90;;;;;;5023124;28;20037;-70
2022/04/01 06:05:35;;;;;;;2.33;0.90;;;7.50;99.90;;;;;;5031408;28;20042;-71
2022/04/01 06:08:38;;;;;;;5.18;1.00;;;7.50;99.90;;;;;;5018703;28;20092;-70
2022/04/01 06:11:29;;;;;;;2.53;1.08;;;7.50;99.90;;;;;;5027036;28;20045;-71
2022/04/01 06:14:18;;;;;;;2.22;1.20;;;7.50;99.90;;;;;;5001384;28;20115;-70
2022/04/01 06:17:08;;;;;;;3.58;0.95;;;7.50;99.90;;;;;;5016982;28;20072;-70
2022/04/01 06:19:43;;;;;;;3.03;1.15;;;7.60;99.90;;;;;;5032353;28;20041;-71
2022/04/01 06:22:12;;;;;;;2.30;1.23;;;7.60;99.90;;;;;;5000055;28;20477;-71
2022/04/01 06:24:48;;;;;;;0.95;0.80;;;7.60;99.30;;;;;;5031880;28;20049;-71
2022/04/01 06:27:27;;;;;;;1.88;1.00;;;7.70;98.30;;;;;;4995635;28;20116;-70
2022/04/01 06:30:07;;;;;;;2.50;0.93;;;7.70;98.50;;;;;;5019752;28;20033;-70
2022/04/01 06:32:56;;;;;;;2.20;0.82;;;7.80;98.60;;;;;;5032238;28;20046;-72
2022/04/01 06:35:30;;;;;;;1.35;0.93;;;7.80;98.60;;;;;;5005252;28;21491;-70
2022/04/01 06:38:05;;;;;;;2.97;0.93;;;7.80;98.20;;;;;;5034219;28;20018;-70
2022/04/01 06:40:56;;;;;;;1.33;0.85;;;7.70;98.30;;;;;;5039481;28;20037;-71
2022/04/01 06:43:23;;;;;;;1.48;0.70;;;7.70;98.00;;;;;;5022447;28;20048;-71
2022/04/01 06:45:50;;;;;;;2.72;0.80;;;7.70;97.90;;;;;;5023093;28;20115;-72
2022/04/01 06:48:16;;;;;;;2.20;1.10;;;7.60;98.70;;;;;;5036136;28;20060;-70
2022/04/01 06:50:49;;;;;;;1.95;1.02;;;7.70;98.80;;;;;;5004969;28;20496;-70
2022/04/01 06:53:17;;;;;;;2.38;1.15;;;7.80;99.00;;;;;;4997822;28;20038;-70
2022/04/01 06:55:47;;;;;;;4.50;1.02;;;7.90;99.30;;;;;;5018265;28;20048;-71
2022/04/01 06:58:14;;;;;;;3.15;1.20;;;7.90;99.00;;;;;;5001464;28;20038;-70
2022/04/01 07:00:41;;;;;;;3.17;1.15;;;8.00;98.50;;;;;;5023818;28;20030;-71
2022/04/01 07:03:11;;;;;;;3.60;1.02;;;8.00;97.80;;;;;;5018821;28;20049;-71
2022/04/01 07:05:38;;;;;;;1.88;1.00;;;8.10;96.60;;;;;;5036800;28;20569;-70
2022/04/01 07:08:05;;;;;;;3.58;1.02;;;8.10;96.80;;;;;;5008665;28;20029;-71
2022/04/01 07:10:32;;;;;;;4.25;0.90;;;8.20;96.20;;;;;;5002955;28;20057;-71
2022/04/01 07:12:58;;;;;;;4.63;1.15;;;8.30;95.70;;;;;;5021819;28;20038;-71
2022/04/01 07:15:25;;;;;;;2.47;1.00;;;8.30;94.70;;;;;;5019873;28;20060;-71
2022/04/01 07:17:52;;;;;;;2.10;0.90;;;8.30;94.50;;;;;;5039411;28;20525;-72
2022/04/01 07:20:20;;;;;;;1.90;0.80;;;8.40;94.70;;;;;;5017231;28;20084;-70
2022/04/01 07:22:47;;;;;;;2.13;1.10;;;8.50;94.00;;;;;;5022032;28;20041;-72
2022/04/01 07:25:13;;;;;;;3.47;0.90;;;8.50;94.10;;;;;;5019815;28;20049;-70
2022/04/01 07:27:41;;;;;;;3.55;1.13;;;8.60;94.00;;;;;;5019831;28;20032;-72
2022/04/01 07:30:09;;;;;;;2.75;1.00;;;8.70;93.30;;;;;;5020796;28;20029;-70
2022/04/01 07:32:36;;;;;;;2.20;0.80;;;8.70;92.60;;;;;;5016712;28;20552;-70
2022/04/01 07:35:05;;;;;;;1.75;0.70;;;8.70;91.90;;;;;;5019711;28;20042;-71
2022/04/01 07:37:32;;;;;;;2.95;0.93;;;8.70;91.30;;;;;;5002614;28;20110;-71
2022/04/01 07:39:58;;;;;;;1.30;0.90;;;8.80;91.20;;;;;;5006055;28;20038;-70
2022/04/01 07:42:26;;;;;;;0.95;0.70;;;8.80;90.90;;;;;;5021134;28;20046;-71
2022/04/01 07:44:54;;;;;;;1.52;0.85;;;8.80;89.30;;;;;;5017818;28;20045;-71
2022/04/01 07:47:21;;;;;;;1.17;0.50;;;8.80;87.70;;;;;;5017985;28;20055;-71
2022/04/01 07:49:48;;;;;;;2.05;0.60;;;8.90;86.70;;;;;;5022442;28;20030;-71
2022/04/01 07:52:17;;;;;;;1.65;0.63;;;8.90;84.90;;;;;;5020249;28;20040;-71
2022/04/01 07:54:43;;;;;;;6.45;0.80;;;8.90;85.60;;;;;;5019242;28;20026;-71
2022/04/01 07:57:12;;;;;;;2.08;0.90;;;8.90;86.30;;;;;;5020747;28;20119;-72
2022/04/01 07:59:39;;;;;;;3.50;1.15;;;9.00;84.10;;;;;;5019200;28;20044;-71
2022/04/01 08:02:07;;;;;;;3.80;0.60;;;9.00;83.70;;;;;;5021168;28;20520;-71
2022/04/01 08:04:33;;;;;;;1.25;0.50;;;9.10;82.70;;;;;;5021342;28;20146;-71
2022/04/01 08:06:59;;;;;;;2.63;0.68;;;9.10;82.50;;;;;;5002240;28;20030;-72
2022/04/01 08:09:27;;;;;;;1.67;0.70;;;9.20;83.30;;;;;;5029744;28;20033;-70
2022/04/01 08:11:54;;;;;;;0.85;0.50;;;9.30;81.90;;;;;;5007896;28;20044;-72
2022/04/01 08:14:20;;;;;;;1.38;0.50;;;9.40;81.40;;;;;;5020299;28;20045;-71
2022/04/01 08:16:47;;;;;;;1.17;0.50;;;9.40;80.60;;;;;;4995212;28;20041;-71
2022/04/01 08:19:14;;;;;;;1.73;0.80;;;9.40;79.90;;;;;;4994155;28;20030;-72
2022/04/01 08:21:40;;;;;;;1.67;0.60;;;9.50;80.80;;;;;;5019007;28;20439;-70
2022/04/01 08:24:09;;;;;;;2.15;0.60;;;9.60;79.80;;;;;;5002994;28;20089;-71
2022/04/01 08:26:35;;;;;;;2.95;0.73;;;9.60;81.20;;;;;;5034986;28;20041;-71
2022/04/01 08:29:02;;;;;;;1.63;0.60;;;9.80;80.90;;;;;;5024860;28;20045;-70
2022/04/01 08:31:30;;;;;;;2.95;0.63;;;9.90;80.10;;;;;;5006977;28;20049;-72
2022/04/01 08:33:57;;;;;;;1.85;0.70;;;10.10;79.60;;;;;;5013676;28;20113;-71
2022/04/01 08:36:24;;;;;;;1.17;0.77;;;12.10;77.80;;;;;;5019640;28;20046;-71
2022/04/01 08:38:52;;;;;;;2.10;0.70;;;13.70;73.90;;;;;;4999194;28;20052;-74
2022/04/01 08:41:20;;;;;;;1.35;0.60;;;14.40;70.30;;;;;;5004382;28;20076;-72
2022/04/01 08:43:49;;;;;;;1.15;0.80;;;15.00;68.80;;;;;;5007583;28;20042;-71
2022/04/01 08:46:15;;;;;;;1.05;0.60;;;15.60;67.50;;;;;;5006365;28;20065;-72
2022/04/01 08:48:43;;;;;;;1.77;0.60;;;15.50;65.90;;;;;;5014739;28;20041;-72
2022/04/01 08:51:10;;;;;;;1.92;0.70;;;15.60;63.40;;;;;;4992995;28;20481;-70
2022/04/01 08:53:42;;;;;;;1.92;0.85;;;16.00;62.80;;;;;;5011753;28;20509;-72
2022/04/01 08:56:08;;;;;;;3.42;0.50;;;16.60;62.20;;;;;;5004609;28;20107;-72
2022/04/01 08:58:35;;;;;;;1.33;0.57;;;16.80;60.00;;;;;;4984713;28;20041;-71
2022/04/01 09:01:05;;;;;;;2.05;0.60;;;16.30;58.70;;;;;;5009833;28;20145;-72
2022/04/01 09:03:34;;;;;;;1.63;0.60;;;16.10;58.10;;;;;;5033565;28;20050;-71
2022/04/01 09:06:02;;;;;;;2.30;0.75;;;16.30;58.50;;;;;;5019826;28;20447;-72
2022/04/01 09:08:37;;;;;;;4.05;0.60;;;17.10;59.40;;;;;;5019049;28;20043;-72
2022/04/01 09:11:08;;;;;;;3.15;0.70;;;16.70;57.10;;;;;;4985982;28;20041;-70
2022/04/01 09:13:50;;;;;;;0.88;0.60;;;16.10;56.10;;;;;;5003039;28;20104;-71
2022/04/01 09:16:27;;;;;;;1.98;0.68;;;15.40;57.40;;;;;;4986811;28;20038;-70
2022/04/01 09:18:59;;;;;;;1.30;0.82;;;16.20;56.90;;;;;;5023802;28;20037;-70
2022/04/01 09:21:33;;;;;;;0.90;0.77;;;16.70;56.90;;;;;;5003542;28;20037;-72
2022/04/01 09:24:00;;;;;;;2.80;0.60;;;17.40;56.50;;;;;;5002610;28;20037;-71
2022/04/01 09:26:38;;;;;;;2.53;0.80;;;17.50;56.30;;;;;;5003855;28;20464;-71
2022/04/01 09:29:07;;;;;;;0.80;0.60;;;16.70;55.30;;;;;;5023057;28;20409;-71
2022/04/01 09:31:38;;;;;;;2.55;0.70;;;16.90;55.30;;;;;;4991161;28;20037;-71
2022/04/01 09:34:09;;;;;;;1.48;0.50;;;17.60;56.10;;;;;;5015356;28;20048;-71
2022/04/01 09:36:37;;;;;;;4.55;0.70;;;18.10;54.80;;;;;;5020282;28;20033;-71
2022/04/01 09:39:08;;;;;;;2.80;0.55;;;18.20;55.80;;;;;;5014905;28;20033;-72
2022/04/01 09:41:39;;;;;;;1.10;0.60;;;17.80;55.10;;;;;;5008597;28;20046;-71
2022/04/01 09:44:08;;;;;;;3.55;0.73;;;16.50;54.30;;;;;;5017200;28;20132;-70
2022/04/01 09:46:34;;;;;;;1.67;0.60;;;15.70;55.10;;;;;;5020456;28;20053;-71
2022/04/01 09:49:01;;;;;;;2.85;0.50;;;15.70;55.10;;;;;;4999688;28;20037;-71
2022/04/01 09:51:32;;;;;;;2.08;0.60;;;15.50;52.20;;;;;;5003044;28;20137;-72
2022/04/01 09:54:02;;;;;;;3.10;0.55;;;16.10;52.90;;;;;;5019257;28;20831;-71
2022/04/01 09:56:56;;;;;;;1.17;0.70;;;16.80;52.50;;;;;;5034361;28;20042;-71
2022/04/01 09:59:24;;;;;;;2.97;0.95;;;16.80;53.00;;;;;;5000536;28;20054;-72
2022/04/01 10:01:51;;;;;;;0.70;0.50;;;15.40;53.30;;;;;;5030555;28;20037;-71
2022/04/01 10:04:17;;;;;;;3.38;0.80;;;14.70;52.90;;;;;;5029009;28;20042;-71
2022/04/01 10:06:44;;;;;;;3.00;0.73;;;15.10;53.30;;;;;;5012322;28;20148;-71
2022/04/01 10:09:11;;;;;;;0.73;0.43;;;16.50;53.30;;;;;;4990821;28;21345;-71
2022/04/01 10:11:42;;;;;;;3.10;0.60;;;15.80;52.00;;;;;;5006419;28;20488;-71
2022/04/01 10:14:11;;;;;;;2.25;0.70;;;15.40;53.30;;;;;;4996153;28;20040;-71
2022/04/01 10:16:42;;;;;;;2.55;0.70;;;14.90;53.50;;;;;;5013773;28;20489;-72
2022/04/01 10:19:14;;;;;;;2.97;0.80;;;14.60;53.60;;;;;;5028139;28;20037;-72
2022/04/01 10:21:45;;;;;;;2.85;0.93;;;14.50;53.00;;;;;;5007733;28;20533;-71
2022/04/01 10:24:14;;;;;;;1.88;0.60;;;14.20;52.60;;;;;;5004764;28;20033;-71
2022/04/01 10:26:54;;;;;;;1.40;0.85;;;13.90;52.20;;;;;;5008699;28;20123;-71
2022/04/01 10:29:21;;;;;;;1.75;0.80;;;14.60;54.60;;;;;;5009134;28;20045;-72
2022/04/01 10:31:54;;;;;;;0.85;0.50;;;14.80;52.70;;;;;;4990870;28;20049;-71
2022/04/01 10:34:24;;;;;;;1.83;0.73;;;14.70;51.30;;;;;;5015504;28;20064;-71
2022/04/01 10:37:02;;;;;;;2.55;0.70;;;14.50;50.90;;;;;;5020916;28;20572;-71
2022/04/01 10:39:29;;;;;;;1.40;0.80;;;15.30;52.90;;;;;;5026618;28;20128;-71
2022/04/01 10:42:14;;;;;;;2.22;0.90;;;15.70;52.20;;;;;;5015308;28;20032;-72
2022/04/01 10:45:02;;;;;;;2.95;0.60;;;15.60;51.90;;;;;;5021619;28;20046;-71
2022/04/01 10:53:45;;;;;;;2.95;0.60;;;16.50;51.90;;;;;;5005629;28;20401;-71
2022/04/01 10:56:24;;;;;;;2.90;0.70;;;15.50;50.10;;;;;;5025760;28;25725;-71
2022/04/01 10:59:15;;;;;;;2.42;0.80;;;16.30;51.80;;;;;;5021282;28;20037;-72
2022/04/01 11:01:53;;;;;;;2.08;0.70;;;16.10;51.20;;;;;;5024422;28;20403;-73
2022/04/01 11:04:20;;;;;;;1.25;0.75;;;16.10;50.30;;;;;;5011123;28;20485;-69
2022/04/01 11:07:01;;;;;;;1.88;0.80;;;16.40;50.40;;;;;;5006610;28;20509;-71
2022/04/01 11:09:42;;;;;;;0.85;0.70;;;16.70;50.70;;;;;;5026754;28;20671;-71
2022/04/01 11:12:19;;;;;;;4.13;0.95;;;16.90;50.70;;;;;;4994213;28;20037;-71
2022/04/01 11:15:27;;;;;;;2.38;0.70;;;16.90;49.40;;;;;;5011647;28;20080;-72
2022/04/01 11:17:47;;;;;;;2.63;1.10;;;17.30;49.70;;;;;;5006296;28;20045;-72
2022/04/01 11:20:22;;;;;;;1.90;0.90;;;17.30;48.80;;;;;;4990123;28;20446;-73
2022/04/01 11:22:58;;;;;;;4.35;1.30;;;17.50;49.40;;;;;;5005507;28;20042;-71
2022/04/01 11:25:32;;;;;;;1.60;0.90;;;17.50;48.80;;;;;;5008317;28;20045;-72
2022/04/01 11:28:11;;;;;;;2.75;1.13;;;17.10;49.30;;;;;;5005193;28;20550;-72
2022/04/01 11:30:39;;;;;;;1.95;0.80;;;17.20;48.70;;;;;;5007531;28;20159;-72
2022/04/01 11:33:13;;;;;;;2.35;0.90;;;17.30;47.90;;;;;;5008295;28;20050;-72
2022/04/01 11:35:42;;;;;;;0.75;0.50;;;17.30;48.40;;;;;;5008828;28;20041;-71
2022/04/01 11:38:15;;;;;;;2.38;1.10;;;17.70;47.90;;;;;;5025371;28;20044;-72
2022/04/01 11:40:44;;;;;;;2.38;0.90;;;18.10;47.40;;;;;;4989860;28;21138;-72
2022/04/01 11:43:15;;;;;;;1.17;0.80;;;16.50;46.60;;;;;;4988581;28;20049;-71
2022/04/01 11:45:47;;;;;;;2.25;1.15;;;16.20;47.20;;;;;;5009290;28;20045;-70
2022/04/01 11:48:34;;;;;;;1.90;0.80;;;17.20;48.80;;;;;;5023025;28;20054;-73
2022/04/01 11:51:20;;;;;;;1.95;1.00;;;17.50;48.10;;;;;;5015231;28;20113;-74
2022/04/01 11:53:53;;;;;;;3.00;0.80;;;17.50;47.90;;;;;;5010420;28;20049;-72
2022/04/01 11:56:25;;;;;;;;;;;17.60;46.80;;;;;;5003471;28;20042;-72
2022/04/01 11:58:59;;;;;;;3.08;1.10;;;17.90;46.60;;;;;;5028561;28;20287;-71
2022/04/01 12:01:29;;;;;;;2.20;1.05;;;18.20;48.20;;;;;;5006769;28;20580;-71
2022/04/01 12:04:07;;;;;;;2.78;0.98;;;18.10;46.90;;;;;;5031186;28;20404;-72
2022/04/01 12:09:19;;;;;;;5.18;0.93;;;18.40;47.50;;;;;;5018576;28;20064;-72
2022/04/01 12:11:46;;;;;;;1.90;0.77;;;17.80;45.20;;;;;;5019189;28;20381;-72
2022/04/01 12:14:13;;;;;;;5.40;1.27;;;18.70;47.20;;;;;;5018489;28;20054;-72
2022/04/01 12:16:41;;;;;;;1.67;0.80;;;18.50;46.60;;;;;;5001982;28;20049;-71
2022/04/01 12:19:12;;;;;;;1.30;0.80;;;18.50;46.60;;;;;;5029854;28;20041;-73
2022/04/01 12:21:38;;;;;;;1.67;0.90;;;18.30;45.40;;;;;;5031847;28;20858;-72
2022/04/01 12:24:05;;;;;;;3.15;0.80;;;18.50;45.40;;;;;;5023588;28;20493;-73
2022/04/01 12:26:31;;;;;;;3.80;1.10;;;19.10;46.40;;;;;;5020486;28;20053;-72
2022/04/01 12:28:57;;;;;;;1.23;0.75;;;19.10;44.90;;;;;;5004698;28;20470;-72
2022/04/01 12:31:27;;;;;;;2.95;1.00;;;18.40;44.60;;;;;;5032813;28;20163;-70
2022/04/01 12:33:57;;;;;;;1.70;0.95;;;18.20;44.10;;;;;;5015606;28;20045;-72
2022/04/01 12:36:53;;;;;;;1.55;0.80;;;18.20;44.70;;;;;;5023925;28;20191;-71
2022/04/01 12:39:19;;;;;;;1.55;0.90;;;18.50;45.20;;;;;;4999787;28;20034;-72
2022/04/01 12:42:00;;;;;;;3.47;0.70;;;18.50;44.90;;;;;;5022082;28;20041;-72
2022/04/01 12:44:31;;;;;;;2.15;1.20;;;19.00;45.20;;;;;;5038180;28;20099;-73
2022/04/01 12:46:59;;;;;;;2.95;0.95;;;18.50;44.50;;;;;;5020114;28;20039;-73
2022/04/01 12:49:33;;;;;;;1.10;0.80;;;18.10;43.80;;;;;;4999618;28;20497;-73
2022/04/01 12:52:02;;;;;;;2.30;0.93;;;18.30;43.80;;;;;;5025358;28;20030;-72
2022/04/01 12:54:31;;;;;;;2.38;0.90;;;17.80;43.10;;;;;;5021818;28;20041;-71
2022/04/01 12:57:00;;;;;;;1.27;0.95;;;18.10;43.40;;;;;;5000952;28;20030;-72
2022/04/01 12:59:26;;;;;;;2.78;0.95;;;18.20;43.80;;;;;;5022961;28;20038;-70
2022/04/01 13:01:57;;;;;;;4.28;1.17;;;17.80;43.00;;;;;;5030797;28;20048;-71
2022/04/01 13:04:23;;;;;;;2.92;0.95;;;18.20;43.60;;;;;;4999621;28;20045;-72
2022/04/01 13:07:15;;;;;;;2.50;1.10;;;19.30;44.20;;;;;;5019211;28;20038;-72
2022/04/01 13:09:45;;;;;;;;;;;19.00;42.70;;;;;;5034383;28;20720;-72
2022/04/01 13:12:11;;;;;;;2.30;0.90;;;18.50;42.70;;;;;;5015964;28;20252;-72
2022/04/01 13:14:37;;;;;;;1.45;0.88;;;18.90;43.20;;;;;;5033592;28;20055;-74
2022/04/01 13:17:11;;;;;;;4.90;0.90;;;19.30;44.10;;;;;;5018069;28;20056;-71
2022/04/01 13:19:38;;;;;;;2.17;0.93;;;18.40;42.10;;;;;;5019311;28;20041;-75
2022/04/01 13:22:06;;;;;;;2.05;1.15;;;19.20;43.50;;;;;;4998507;28;20037;-72
2022/04/01 13:24:37;;;;;;;2.72;0.80;;;18.90;42.60;;;;;;5020431;28;20053;-72
2022/04/01 13:27:05;;;;;;;1.87;0.80;;;19.50;43.50;;;;;;5030437;28;20132;-71